createdAt,value
2022-10-18T00:02:00.061Z,97256.56
2022-10-18T00:04:33.357Z,97251.50
2022-10-18T00:07:06.237Z,97248.16
2022-10-18T00:09:39.352Z,97247.06
2022-10-18T00:12:13.548Z,97252.22
2022-10-18T00:14:46.343Z,97261.22
2022-10-18T00:17:19.410Z,97255.97
2022-10-18T00:19:52.341Z,97253.09
2022-10-18T00:22:25.459Z,97262.84
2022-10-18T00:24:58.381Z,97263.78
2022-10-18T00:27:32.677Z,97261.19
2022-10-18T00:30:06.872Z,97265.00
2022-10-18T00:32:40.288Z,97260.41
2022-10-18T00:35:13.102Z,97267.38
2022-10-18T00:37:45.849Z,97271.53
2022-10-18T00:40:18.979Z,97274.88
2022-10-18T00:42:53.188Z,97274.53
2022-10-18T00:45:26.296Z,97264.44
2022-10-18T00:48:02.355Z,97273.59
2022-10-18T00:50:36.318Z,97272.34
2022-10-18T00:53:14.005Z,97278.53
2022-10-18T00:55:47.554Z,97263.53
2022-10-18T00:58:21.769Z,97274.72
2022-10-18T01:00:54.612Z,97276.97
2022-10-18T01:03:27.647Z,97266.97
2022-10-18T01:06:00.675Z,97267.75
2022-10-18T01:08:46.416Z,97260.94
2022-10-18T01:11:32.842Z,97260.16
2022-10-18T01:14:19.796Z,97249.06
2022-10-18T01:17:01.852Z,97252.22
2022-10-18T01:20:19.655Z,97242.69
2022-10-18T01:22:57.986Z,97252.81
2022-10-18T01:25:41.998Z,97261.81
2022-10-18T01:28:29.952Z,97264.59
2022-10-18T01:31:06.183Z,97261.25
2022-10-18T01:33:42.580Z,97254.91
2022-10-18T01:36:20.805Z,97263.59
2022-10-18T01:38:58.598Z,97261.00
2022-10-18T01:41:31.775Z,97261.13
2022-10-18T01:44:08.405Z,97260.47
2022-10-18T01:46:45.191Z,97251.72
2022-10-18T01:49:18.079Z,97250.13
2022-10-18T01:51:50.854Z,97240.94
2022-10-18T01:54:30.788Z,97242.66
2022-10-18T01:57:10.544Z,97239.19
2022-10-18T01:59:53.105Z,97246.56
2022-10-18T02:02:40.908Z,97248.63
2022-10-18T02:05:22.687Z,97256.03
2022-10-18T02:08:12.193Z,97256.47
2022-10-18T02:10:56.952Z,97263.34
2022-10-18T02:13:35.405Z,97259.97
2022-10-18T02:16:12.049Z,97257.44
2022-10-18T02:18:52.296Z,97251.69
2022-10-18T02:21:28.769Z,97259.09
2022-10-18T02:24:03.833Z,97253.84
2022-10-18T02:26:37.234Z,97256.97
2022-10-18T02:29:10.535Z,97246.97
2022-10-18T02:31:46.117Z,97242.50
2022-10-18T02:34:23.453Z,97236.78
2022-10-18T02:36:59.423Z,97232.97
2022-10-18T02:39:35.326Z,97236.78
2022-10-18T02:42:10.979Z,97246.31
2022-10-18T02:44:44.058Z,97240.00
2022-10-18T02:47:16.918Z,97240.69
2022-10-18T02:49:51.144Z,97250.56
2022-10-18T02:52:24.051Z,97253.16
2022-10-18T02:54:56.879Z,97252.56
2022-10-18T02:57:30.467Z,97247.88
2022-10-18T03:00:03.775Z,97250.09
2022-10-18T03:02:36.649Z,97250.75
2022-10-18T03:05:11.309Z,97256.13
2022-10-18T03:07:44.214Z,97253.78
2022-10-18T03:10:17.039Z,97248.28
2022-10-18T03:12:49.928Z,97247.03
2022-10-18T03:15:22.726Z,97247.38
2022-10-18T03:17:55.558Z,97249.25
2022-10-18T03:20:30.022Z,97245.03
2022-10-18T03:23:03.343Z,97245.34
2022-10-18T03:25:36.152Z,97251.53
2022-10-18T03:28:08.964Z,97260.38
2022-10-18T03:30:41.869Z,97260.38
2022-10-18T03:33:14.802Z,97268.13
2022-10-18T03:35:48.992Z,97263.50
2022-10-18T03:38:21.898Z,97267.31
2022-10-18T03:40:54.814Z,97258.91
2022-10-18T03:43:27.593Z,97280.47
2022-10-18T03:46:01.571Z,97269.38
2022-10-18T03:48:34.474Z,97272.06
2022-10-18T03:51:08.812Z,97274.75
2022-10-18T03:53:41.725Z,97267.00
2022-10-18T03:56:14.671Z,97281.94
2022-10-18T03:58:47.616Z,97282.59
2022-10-18T04:01:20.794Z,97281.34
2022-10-18T04:03:53.916Z,97283.13
2022-10-18T04:06:28.091Z,97291.84
2022-10-18T04:09:02.299Z,97297.00
2022-10-18T04:11:37.028Z,97300.66
2022-10-18T04:14:09.972Z,97297.06
2022-10-18T04:16:42.856Z,97295.66
2022-10-18T04:19:15.986Z,97293.16
2022-10-18T04:21:50.416Z,97293.06
2022-10-18T04:24:23.302Z,97297.03
2022-10-18T04:26:56.427Z,97299.94
2022-10-18T04:29:29.256Z,97294.41
2022-10-18T04:32:02.351Z,97291.13
2022-10-18T04:34:35.197Z,97295.59
2022-10-18T04:37:09.583Z,97284.25
2022-10-18T04:39:49.821Z,97288.69
2022-10-18T04:42:25.973Z,97289.22
2022-10-18T04:44:58.880Z,97289.09
2022-10-18T04:47:31.921Z,97281.97
2022-10-18T04:50:06.359Z,97288.69
2022-10-18T04:52:40.591Z,97289.63
2022-10-18T04:55:13.472Z,97289.84
2022-10-18T04:57:46.500Z,97293.16
2022-10-18T05:00:19.718Z,97304.56
2022-10-18T05:02:57.440Z,97300.31
2022-10-18T05:05:49.788Z,97303.94
2022-10-18T05:08:24.633Z,97310.91
2022-10-18T05:10:57.499Z,97301.13
2022-10-18T05:13:31.123Z,97305.25
2022-10-18T05:16:04.041Z,97315.69
2022-10-18T05:18:36.843Z,97316.78
2022-10-18T05:21:09.772Z,97321.84
2022-10-18T05:23:44.048Z,97315.81
2022-10-18T05:26:16.884Z,97317.53
2022-10-18T05:28:50.875Z,97313.44
2022-10-18T05:31:23.768Z,97319.41
2022-10-18T05:33:56.590Z,97315.88
2022-10-18T05:36:29.583Z,97319.31
2022-10-18T05:39:05.841Z,97307.72
2022-10-18T05:41:38.627Z,97306.88
2022-10-18T05:44:11.501Z,97300.63
2022-10-18T05:46:44.355Z,97300.91
2022-10-18T05:49:17.230Z,97306.56
2022-10-18T05:51:50.309Z,97300.97
2022-10-18T05:54:24.491Z,97301.25
2022-10-18T05:56:57.271Z,97298.69
2022-10-18T05:59:30.115Z,97298.00
2022-10-18T06:02:03.536Z,97299.75
2022-10-18T06:04:36.334Z,97297.06
2022-10-18T06:07:10.367Z,97306.72
2022-10-18T06:09:44.550Z,97298.94
2022-10-18T06:12:17.405Z,97297.69
2022-10-18T06:14:50.350Z,97296.00
2022-10-18T06:17:23.216Z,97292.38
2022-10-18T06:19:56.079Z,97300.34
2022-10-18T06:22:28.916Z,97297.19
2022-10-18T06:25:03.189Z,97302.56
2022-10-18T06:27:36.120Z,97292.44
2022-10-18T06:30:10.445Z,97295.13
2022-10-18T06:32:43.302Z,97299.41
2022-10-18T06:35:16.294Z,97305.91
2022-10-18T06:37:49.105Z,97308.59
2022-10-18T06:40:23.357Z,97326.44
2022-10-18T06:43:00.623Z,97339.56
2022-10-18T06:45:43.421Z,97333.53
2022-10-18T06:48:16.320Z,97339.84
2022-10-18T06:50:53.723Z,97345.50
2022-10-18T06:53:27.274Z,97348.66
2022-10-18T06:56:02.866Z,97356.69
2022-10-18T06:58:36.647Z,97350.63
2022-10-18T07:01:10.910Z,97361.66
2022-10-18T07:03:45.109Z,97360.81
2022-10-18T07:06:19.687Z,97357.25
2022-10-18T07:08:54.227Z,97356.38
2022-10-18T07:11:28.779Z,97344.41
2022-10-18T07:14:04.808Z,97348.91
2022-10-18T07:16:37.726Z,97342.31
2022-10-18T07:19:10.587Z,97343.78
2022-10-18T07:21:43.544Z,97345.25
2022-10-18T07:24:16.395Z,97342.94
2022-10-18T07:26:50.567Z,97343.31
2022-10-18T07:29:23.407Z,97345.56
2022-10-18T07:31:56.222Z,97350.50
2022-10-18T07:34:29.089Z,97349.72
2022-10-18T07:37:02.918Z,97347.34
2022-10-18T07:39:35.718Z,97347.69
2022-10-18T07:42:09.933Z,97350.81
2022-10-18T07:44:42.730Z,97353.03
2022-10-18T07:47:16.327Z,97351.88
2022-10-18T07:49:49.074Z,97340.63
2022-10-18T07:52:21.909Z,97348.38
2022-10-18T07:54:54.740Z,97351.78
2022-10-18T07:57:29.443Z,97346.41
2022-10-18T08:00:02.338Z,97354.16
2022-10-18T08:02:35.329Z,97362.63
2022-10-18T08:05:08.716Z,97367.25
2022-10-18T08:07:41.601Z,97371.16
2022-10-18T08:10:14.577Z,97371.84
2022-10-18T08:12:48.874Z,97367.53
2022-10-18T08:15:25.121Z,97374.00
2022-10-18T08:17:58.076Z,97360.38
2022-10-18T08:20:33.243Z,97358.69
2022-10-18T08:23:06.298Z,97360.06
2022-10-18T08:25:39.197Z,97359.06
2022-10-18T08:28:13.863Z,97360.47
2022-10-18T08:30:46.819Z,97356.38
2022-10-18T08:33:19.702Z,97358.88
2022-10-18T08:35:56.651Z,97364.88
2022-10-18T08:38:31.809Z,97359.22
2022-10-18T08:41:29.623Z,97354.34
2022-10-18T08:44:09.315Z,97358.41
2022-10-18T08:46:45.970Z,97362.47
2022-10-18T08:49:26.757Z,97363.03
2022-10-18T08:52:00.018Z,97362.38
2022-10-18T08:54:38.682Z,97364.97
2022-10-18T08:57:15.786Z,97357.72
2022-10-18T08:59:50.156Z,97364.50
2022-10-18T09:02:37.408Z,97357.31
2022-10-18T09:05:23.930Z,97356.28
2022-10-18T09:08:24.291Z,97339.00
2022-10-18T09:11:08.714Z,97339.97
2022-10-18T09:14:04.410Z,97336.28
2022-10-18T09:16:46.827Z,97326.38
2022-10-18T09:19:45.199Z,97321.88
2022-10-18T09:22:20.739Z,97325.50
2022-10-18T09:25:01.650Z,97325.69
2022-10-18T09:27:43.399Z,97323.91
2022-10-18T09:30:24.326Z,97330.25
2022-10-18T09:33:06.286Z,97326.16
2022-10-18T09:35:43.480Z,97325.06
2022-10-18T09:38:22.641Z,97325.97
2022-10-18T09:41:00.139Z,97328.44
2022-10-18T09:43:47.087Z,97327.75
2022-10-18T09:46:21.676Z,97327.03
2022-10-18T09:49:00.334Z,97327.13
2022-10-18T09:51:37.534Z,97322.53
2022-10-18T09:54:23.179Z,97328.09
2022-10-18T09:57:03.578Z,97321.16
2022-10-18T09:59:39.754Z,97317.69
2022-10-18T10:02:15.280Z,97310.34
2022-10-18T10:04:49.863Z,97322.09
2022-10-18T10:07:29.946Z,97312.38
2022-10-18T10:10:09.563Z,97309.69
2022-10-18T10:12:42.745Z,97319.06
2022-10-18T10:15:21.233Z,97310.16
2022-10-18T10:17:59.261Z,97315.25
2022-10-18T10:20:37.519Z,97307.13
2022-10-18T10:25:53.524Z,97314.16
2022-10-18T10:28:30.074Z,97310.66
2022-10-18T10:31:19.884Z,97308.78
2022-10-18T10:34:00.704Z,97309.56
2022-10-18T10:36:35.285Z,97303.72
2022-10-18T10:39:12.633Z,97306.09
2022-10-18T10:41:49.427Z,97304.16
2022-10-18T10:44:24.577Z,97309.63
2022-10-18T10:46:58.593Z,97306.13
2022-10-18T10:49:44.438Z,97310.06
2022-10-18T10:52:28.815Z,97310.06
2022-10-18T10:55:23.601Z,97307.75
2022-10-18T10:57:57.351Z,97299.22
2022-10-18T11:00:39.159Z,97305.06
2022-10-18T11:03:30.022Z,97297.31
2022-10-18T11:06:03.174Z,97298.47
2022-10-18T11:08:42.337Z,97296.97
2022-10-18T11:11:23.040Z,97298.91
2022-10-18T11:14:24.820Z,97298.53
2022-10-18T11:17:08.074Z,97291.56
2022-10-18T11:19:53.072Z,97289.97
2022-10-18T11:22:29.009Z,97284.50
2022-10-18T11:25:05.013Z,97282.97
2022-10-18T11:27:44.033Z,97278.66
2022-10-18T11:30:46.440Z,97273.59
2022-10-18T11:33:50.161Z,97270.09
2022-10-18T11:36:25.698Z,97255.66
2022-10-18T11:39:05.417Z,97263.06
2022-10-18T11:41:46.239Z,97265.41
2022-10-18T11:44:29.162Z,97260.75
2022-10-18T11:47:12.254Z,97257.63
2022-10-18T11:50:02.422Z,97252.53
2022-10-18T11:52:44.049Z,97242.38
2022-10-18T11:55:33.136Z,97245.13
2022-10-18T11:58:25.116Z,97230.31
2022-10-18T12:01:02.652Z,97242.78
2022-10-18T12:03:46.552Z,97225.25
2022-10-18T12:06:23.340Z,97231.09
2022-10-18T12:09:00.673Z,97229.13
2022-10-18T12:11:43.953Z,97238.50
2022-10-18T12:14:25.595Z,97228.75
2022-10-18T12:17:35.903Z,97233.81
2022-10-18T12:20:00.660Z,97227.59
2022-10-18T12:22:37.713Z,97227.94
2022-10-18T12:25:14.335Z,97232.63
2022-10-18T12:27:53.167Z,97231.84
2022-10-18T12:30:37.000Z,97227.59
2022-10-18T12:33:27.811Z,97235.38
2022-10-18T12:36:06.660Z,97227.56
2022-10-18T12:38:43.723Z,97219.78
2022-10-18T12:41:22.262Z,97224.84
2022-10-18T12:44:00.054Z,97215.09
2022-10-18T12:46:50.088Z,97225.63
2022-10-18T12:49:28.736Z,97213.16
2022-10-18T12:52:05.777Z,97228.38
2022-10-18T12:54:40.671Z,97223.31
2022-10-18T12:57:24.864Z,97220.59
2022-10-18T12:59:57.724Z,97217.06
2022-10-18T13:02:33.041Z,97218.22
2022-10-18T13:05:48.924Z,97216.28
2022-10-18T13:08:43.533Z,97214.72
2022-10-18T13:11:36.189Z,97209.63
2022-10-18T13:14:53.541Z,97205.34
2022-10-18T13:17:45.112Z,97203.03
2022-10-18T13:20:27.428Z,97204.97
2022-10-18T13:23:11.866Z,97197.19
2022-10-18T13:25:55.563Z,97197.19
2022-10-18T13:28:37.290Z,97196.00
2022-10-18T13:31:20.619Z,97193.66
2022-10-18T13:33:54.881Z,97185.50
2022-10-18T13:36:33.816Z,97186.66
2022-10-18T13:39:07.209Z,97185.47
2022-10-18T13:42:13.455Z,97192.50
2022-10-18T13:44:47.151Z,97183.13
2022-10-18T13:47:40.998Z,97186.63
2022-10-18T13:50:39.360Z,97192.06
2022-10-18T13:53:34.730Z,97177.66
2022-10-18T13:56:32.753Z,97176.09
2022-10-18T13:59:22.885Z,97181.16
2022-10-18T14:02:15.143Z,97178.44
2022-10-18T14:05:24.690Z,97176.88
2022-10-18T14:08:08.139Z,97174.53
2022-10-18T14:11:01.763Z,97175.69
2022-10-18T14:13:44.389Z,97188.19
2022-10-18T14:16:41.142Z,97175.31
2022-10-18T14:19:20.966Z,97176.47
2022-10-18T14:22:00.069Z,97182.69
2022-10-18T14:24:35.396Z,97178.41
2022-10-18T14:27:18.113Z,97180.38
2022-10-18T14:29:52.338Z,97179.59
2022-10-18T14:32:28.905Z,97178.81
2022-10-18T14:35:27.559Z,97186.97
2022-10-18T14:37:56.576Z,97181.91
2022-10-18T14:40:42.710Z,97187.75
2022-10-18T14:43:19.959Z,97183.47
2022-10-18T14:48:25.998Z,97177.63
2022-10-18T14:51:00.677Z,97187.72
2022-10-18T14:53:38.385Z,97177.56
2022-10-18T14:56:23.120Z,97181.47
2022-10-18T14:58:57.948Z,97187.28
2022-10-18T15:01:33.352Z,97179.91
2022-10-18T15:04:10.820Z,97185.28
2022-10-18T15:06:45.141Z,97177.50
2022-10-18T15:09:24.198Z,97179.81
2022-10-18T15:12:00.712Z,97177.06
2022-10-18T15:14:34.522Z,97168.13
2022-10-18T15:17:13.954Z,97167.72
2022-10-18T15:19:59.361Z,97177.06
2022-10-18T15:22:35.120Z,97167.28
2022-10-18T15:25:15.608Z,97164.56
2022-10-18T15:27:52.456Z,97163.78
2022-10-18T15:30:28.168Z,97163.00
2022-10-18T15:33:02.681Z,97160.63
2022-10-18T15:35:37.720Z,97158.66
2022-10-18T15:38:16.884Z,97162.94
2022-10-18T15:40:49.813Z,97156.69
2022-10-18T15:43:38.006Z,97163.28
2022-10-18T15:46:31.185Z,97162.06
2022-10-18T15:49:37.420Z,97160.50
2022-10-18T15:52:38.634Z,97164.38
2022-10-18T15:55:57.944Z,97164.28
2022-10-18T15:58:39.156Z,97154.91
2022-10-18T16:01:19.367Z,97165.00
2022-10-18T16:06:30.732Z,97156.38
2022-10-18T16:09:03.578Z,97159.47
2022-10-18T16:11:36.428Z,97153.16
2022-10-18T16:14:09.444Z,97156.59
2022-10-18T16:16:44.313Z,97157.34
2022-10-18T16:19:21.224Z,97152.63
2022-10-18T16:21:56.128Z,97159.19
2022-10-18T16:24:29.115Z,97164.91
2022-10-18T16:27:02.082Z,97154.72
2022-10-18T16:29:34.884Z,97153.44
2022-10-18T16:32:09.277Z,97151.03
2022-10-18T16:34:42.214Z,97147.41
2022-10-18T16:37:15.077Z,97150.81
2022-10-18T16:39:47.936Z,97148.00
2022-10-18T16:42:20.799Z,97157.59
2022-10-18T16:44:54.994Z,97159.78
2022-10-18T16:47:29.461Z,97158.13
2022-10-18T16:50:06.541Z,97164.56
2022-10-18T16:52:39.764Z,97163.28
2022-10-18T16:55:21.451Z,97171.69
2022-10-18T16:57:54.063Z,97178.16
2022-10-18T17:00:26.902Z,97180.44
2022-10-18T17:03:01.364Z,97176.84
2022-10-18T17:05:34.374Z,97187.16
2022-10-18T17:08:07.754Z,97179.63
2022-10-18T17:10:40.591Z,97182.94
2022-10-18T17:13:13.439Z,97183.19
2022-10-18T17:15:46.751Z,97190.06
2022-10-18T17:18:23.195Z,97188.03
2022-10-18T17:20:56.642Z,97192.13
2022-10-18T17:23:29.550Z,97196.63
2022-10-18T17:26:26.330Z,97197.63
2022-10-18T17:28:57.701Z,97197.50
2022-10-18T17:31:32.113Z,97199.31
2022-10-18T17:34:06.549Z,97206.16
2022-10-18T17:36:39.432Z,97197.13
2022-10-18T17:39:12.502Z,97198.50
2022-10-18T17:41:45.305Z,97203.34
2022-10-18T17:44:18.465Z,97205.13
2022-10-18T17:46:51.421Z,97210.41
2022-10-18T17:49:26.029Z,97207.56
2022-10-18T17:52:01.147Z,97210.47
2022-10-18T17:54:37.360Z,97211.13
2022-10-18T17:57:10.212Z,97207.09
2022-10-18T17:59:43.170Z,97203.91
2022-10-18T18:02:15.995Z,97207.69
2022-10-18T18:04:50.155Z,97218.06
2022-10-18T18:07:23.008Z,97212.16
2022-10-18T18:09:57.016Z,97220.63
2022-10-18T18:12:30.107Z,97218.25
2022-10-18T18:15:03.154Z,97213.53
2022-10-18T18:17:56.033Z,97207.34
2022-10-18T18:20:30.803Z,97215.91
2022-10-18T18:23:03.678Z,97206.16
2022-10-18T18:25:36.523Z,97211.91
2022-10-18T18:28:09.375Z,97207.63
2022-10-18T18:30:42.263Z,97207.19
2022-10-18T18:33:15.178Z,97209.13
2022-10-18T18:35:57.435Z,97209.56
2022-10-18T18:38:30.348Z,97206.34
2022-10-18T18:41:06.743Z,97205.63
2022-10-18T18:43:40.868Z,97200.94
2022-10-18T18:46:14.019Z,97205.44
2022-10-18T18:48:46.903Z,97212.31
2022-10-18T18:51:22.970Z,97209.22
2022-10-18T18:53:56.259Z,97204.50
2022-10-18T18:56:30.100Z,97206.75
2022-10-18T18:59:03.359Z,97207.88
2022-10-18T19:01:39.003Z,97207.47
2022-10-18T19:04:12.306Z,97215.50
2022-10-18T19:06:47.049Z,97210.78
2022-10-18T19:09:22.798Z,97212.63
2022-10-18T19:11:57.225Z,97212.88
2022-10-18T19:14:30.101Z,97212.81
2022-10-18T19:17:07.060Z,97211.91
2022-10-18T19:19:40.915Z,97216.88
2022-10-18T19:22:15.314Z,97215.25
2022-10-18T19:24:48.136Z,97218.56
2022-10-18T19:27:21.081Z,97219.59
2022-10-18T19:29:53.961Z,97227.63
2022-10-18T19:32:29.840Z,97219.75
2022-10-18T19:35:02.693Z,97228.13
2022-10-18T19:37:37.016Z,97231.06
2022-10-18T19:40:10.769Z,97223.91
2022-10-18T19:42:43.829Z,97218.75
2022-10-18T19:45:16.725Z,97218.59
2022-10-18T19:47:49.727Z,97223.84
2022-10-18T19:50:22.566Z,97224.78
2022-10-18T19:52:56.884Z,97225.47
2022-10-18T19:55:30.329Z,97226.06
2022-10-18T19:58:03.492Z,97222.50
2022-10-18T20:00:36.383Z,97224.28
2022-10-18T20:03:09.205Z,97222.63
2022-10-18T20:05:43.339Z,97222.53
2022-10-18T20:08:18.198Z,97217.78
2022-10-18T20:10:51.189Z,97215.81
2022-10-18T20:13:25.062Z,97224.69
2022-10-18T20:15:57.982Z,97220.41
2022-10-18T20:18:33.162Z,97221.19
2022-10-18T20:21:06.972Z,97209.16
2022-10-18T20:23:42.678Z,97218.38
2022-10-18T20:26:20.460Z,97219.88
2022-10-18T20:28:56.936Z,97222.91
2022-10-18T20:31:31.640Z,97216.72
2022-10-18T20:34:07.253Z,97222.91
2022-10-18T20:36:41.534Z,97217.41
2022-10-18T20:39:15.975Z,97221.69
2022-10-18T20:41:49.235Z,97216.63
2022-10-18T20:44:22.756Z,97208.06
2022-10-18T20:46:55.530Z,97211.56
2022-10-18T20:49:28.326Z,97213.03
2022-10-18T20:52:01.358Z,97208.66
2022-10-18T20:54:35.644Z,97213.97
2022-10-18T20:57:08.425Z,97206.09
2022-10-18T20:59:41.709Z,97210.25
2022-10-18T21:02:14.752Z,97216.22
2022-10-18T21:04:47.696Z,97214.56
2022-10-18T21:07:20.509Z,97221.41
2022-10-18T21:09:54.911Z,97218.25
2022-10-18T21:12:29.060Z,97217.72
2022-10-18T21:15:02.161Z,97212.50
2022-10-18T21:17:35.037Z,97213.19
2022-10-18T21:20:09.799Z,97206.56
2022-10-18T21:22:42.680Z,97203.31
2022-10-18T21:25:17.270Z,97201.75
2022-10-18T21:27:50.104Z,97193.88
2022-10-18T21:30:23.565Z,97196.94
2022-10-18T21:32:56.402Z,97191.88
2022-10-18T21:35:29.292Z,97194.13
2022-10-18T21:38:02.096Z,97201.31
2022-10-18T21:40:39.814Z,97200.06
2022-10-18T21:43:12.821Z,97191.41
2022-10-18T21:45:45.739Z,97191.31
2022-10-18T21:48:18.570Z,97185.00
2022-10-18T21:50:52.705Z,97180.31
2022-10-18T21:53:25.567Z,97179.41
2022-10-18T21:56:05.731Z,97183.53
2022-10-18T21:58:38.955Z,97181.41
2022-10-18T22:01:13.570Z,97170.53
2022-10-18T22:03:48.741Z,97168.50
2022-10-18T22:06:22.228Z,97159.19
2022-10-18T22:08:57.979Z,97147.19
2022-10-18T22:11:35.204Z,97161.00
2022-10-18T22:14:08.071Z,97158.19
2022-10-18T22:16:40.918Z,97153.47
2022-10-18T22:19:14.094Z,97151.78
2022-10-18T22:21:47.206Z,97149.41
2022-10-18T22:24:20.138Z,97149.63
2022-10-18T22:26:54.321Z,97145.38
2022-10-18T22:29:27.139Z,97146.81
2022-10-18T22:32:01.971Z,97143.25
2022-10-18T22:34:34.856Z,97151.19
2022-10-18T22:37:07.768Z,97149.94
2022-10-18T22:39:40.566Z,97150.63
2022-10-18T22:42:14.954Z,97151.25
2022-10-18T22:44:47.860Z,97144.97
2022-10-18T22:47:21.072Z,97142.16
2022-10-18T22:49:53.876Z,97147.41
2022-10-18T22:52:26.794Z,97145.38
2022-10-18T22:54:59.566Z,97147.94
2022-10-18T22:57:33.828Z,97144.78
2022-10-18T23:00:08.010Z,97147.69
2022-10-18T23:02:40.897Z,97146.13
2022-10-18T23:05:13.728Z,97147.25
2022-10-18T23:07:49.881Z,97139.50
2022-10-18T23:10:22.710Z,97143.19
2022-10-18T23:12:56.902Z,97139.72
2022-10-18T23:15:29.728Z,97142.28
2022-10-18T23:18:03.166Z,97138.34
2022-10-18T23:20:36.001Z,97131.41
2022-10-18T23:23:08.853Z,97133.31
2022-10-18T23:25:42.352Z,97132.50
2022-10-18T23:28:16.576Z,97127.78
2022-10-18T23:30:49.337Z,97128.47
2022-10-18T23:33:22.614Z,97129.59
2022-10-18T23:35:55.429Z,97129.91
2022-10-18T23:38:29.743Z,97131.47
2022-10-18T23:41:02.538Z,97136.06
2022-10-18T23:43:37.211Z,97128.78
2022-10-18T23:46:10.682Z,97124.84
2022-10-18T23:48:43.834Z,97122.50
2022-10-18T23:51:17.707Z,97129.34
2022-10-18T23:53:50.754Z,97131.22
2022-10-18T23:56:23.708Z,97126.97
2022-10-18T23:58:57.959Z,97127.28
